Time;durP1;ratioP1;P1;durP2;ratioP2;P2;SDS_P1;SDS_P2;PMS_P1;PMS_P2;Temp;Humidity;BMP_temperature;BMP_pressure;BME280_temperature;BME280_humidity;BME280_pressure;Samples;Min_cycle;Max_cycle;Signal;HPM_P1;HPM_P2
2023/08/23 00:02:07;;;;;;;;;;;;;;;17.06;83.10;101984.41;5013998;28;19956;-59
2023/08/23 00:04:34;;;;;;;;;;;;;;;17.02;82.92;101982.56;5026013;28;19948;-60
2023/08/23 00:06:59;;;;;;;;;;;;;;;16.99;83.05;101982.53;5019476;28;19932;-60
2023/08/23 00:09:25;;;;;;;;;;;;;;;16.97;82.92;101977.22;5010292;28;19905;-60
2023/08/23 00:11:50;;;;;;;;;;;;;;;16.96;82.80;101979.81;5024954;28;19960;-60
2023/08/23 00:14:15;;;;;;;;;;;;;;;16.93;82.65;101985.03;5020016;28;19960;-60
2023/08/23 00:16:40;;;;;;;;;;;;;;;16.88;82.78;101978.84;5021008;28;19917;-60
2023/08/23 00:19:05;;;;;;;;;;;;;;;16.82;82.70;101975.19;5023993;28;19897;-60
2023/08/23 00:21:31;;;;;;;;;;;;;;;16.77;83.23;101976.91;5022258;28;19918;-60
2023/08/23 00:23:56;;;;;;;;;;;;;;;16.75;83.53;101973.34;5018335;28;19932;-60
2023/08/23 00:26:21;;;;;;;;;;;;;;;16.75;83.70;101973.34;5015362;28;20063;-60
2023/08/23 00:28:46;;;;;;;;;;;;;;;16.75;83.98;101973.34;5010619;28;19992;-60
2023/08/23 00:31:11;;;;;;;;;;;;;;;16.73;83.76;101968.91;5025336;28;19906;-60
2023/08/23 00:33:37;;;;;;;;;;;;;;;16.72;83.72;101968.03;5019978;28;19944;-60
2023/08/23 00:36:02;;;;;;;;;;;;;;;16.69;83.77;101958.31;5014952;28;19918;-60
2023/08/23 00:38:27;;;;;;;;;;;;;;;16.62;83.74;101963.47;5022074;28;19948;-60
2023/08/23 00:40:52;;;;;;;;;;;;;;;16.51;83.43;101955.38;5026260;28;19976;-60
2023/08/23 00:43:18;;;;;;;;;;;;;;;16.48;83.64;101955.34;5025534;28;19905;-60
2023/08/23 00:45:43;;;;;;;;;;;;;;;16.43;83.42;101955.25;5022529;28;20162;-60
2023/08/23 00:48:09;;;;;;;;;;;;;;;16.34;84.26;101957.75;5030288;28;19921;-60
2023/08/23 00:50:35;;;;;;;;;;;;;;;16.31;84.64;101952.44;5026386;28;19940;-60
2023/08/23 00:53:01;;;;;;;;;;;;;;;16.31;84.91;101957.69;5025492;28;19909;-60
2023/08/23 00:55:26;;;;;;;;;;;;;;;16.32;84.10;101943.66;5025037;28;19980;-60
2023/08/23 00:57:52;;;;;;;;;;;;;;;16.25;83.90;101945.31;5022923;28;19912;-60
2023/08/23 01:00:17;;;;;;;;;;;;;;;16.08;84.77;101946.75;5024590;28;19952;-60
2023/08/23 01:02:43;;;;;;;;;;;;;;;15.89;86.02;101950.75;5026122;28;19968;-60
2023/08/23 01:05:08;;;;;;;;;;;;;;;15.68;85.91;101946.81;5026456;28;19917;-60
2023/08/23 01:07:52;;;;;;;;;;;;;;;15.54;86.39;101951.81;5022781;28;19914;-60
2023/08/23 01:10:25;;;;;;;;;;;;;;;15.50;87.32;101952.59;5011597;28;19914;-60
2023/08/23 01:13:00;;;;;;;;;;;;;;;15.53;88.09;101952.66;5017051;28;19910;-60
2023/08/23 01:15:25;;;;;;;;;;;;;;;15.60;88.07;101958.94;5016023;28;19905;-59
2023/08/23 01:17:51;;;;;;;;;;;;;;;15.65;86.43;101957.28;5012360;28;19912;-59
2023/08/23 01:20:16;;;;;;;;;;;;;;;15.60;86.19;101964.19;5014801;28;19924;-60
2023/08/23 01:22:48;;;;;;;;;;;;;;;15.52;86.96;101958.75;5012273;28;20172;-60
2023/08/23 01:25:13;;;;;;;;;;;;;;;15.55;88.17;101957.94;5019364;28;19933;-60
2023/08/23 01:27:38;;;;;;;;;;;;;;;15.55;88.25;101961.44;5006877;28;19906;-60
2023/08/23 01:30:04;;;;;;;;;;;;;;;15.54;87.93;101962.31;5026763;28;20123;-60
2023/08/23 01:32:41;;;;;;;;;;;;;;;15.55;88.10;101963.19;5017522;28;19913;-60
2023/08/23 01:35:10;;;;;;;;;;;;;;;15.52;87.52;101964.00;5025001;28;20123;-60
2023/08/23 01:37:37;;;;;;;;;;;;;;;15.47;87.63;101955.16;5020769;28;19906;-60
2023/08/23 01:40:03;;;;;;;;;;;;;;;15.52;87.02;101955.25;5022588;28;19905;-60
2023/08/23 01:42:29;;;;;;;;;;;;;;;15.53;87.16;101960.53;5025649;28;19912;-60
2023/08/23 01:44:54;;;;;;;;;;;;;;;15.54;87.49;101961.41;5023249;28;19913;-60
2023/08/23 01:47:19;;;;;;;;;;;;;;;15.52;87.60;101956.13;5024650;28;19913;-60
2023/08/23 01:49:44;;;;;;;;;;;;;;;15.52;87.12;101947.38;5020126;28;19917;-60
2023/08/23 01:52:10;;;;;;;;;;;;;;;15.48;87.52;101952.56;5023035;28;19912;-60
2023/08/23 01:54:35;;;;;;;;;;;;;;;15.41;87.26;101948.03;5018574;28;20190;-60
2023/08/23 01:57:00;;;;;;;;;;;;;;;15.42;87.59;101949.78;5016584;28;19905;-60
2023/08/23 01:59:25;;;;;;;;;;;;;;;15.42;87.36;101947.16;5018728;28;19905;-60
2023/08/23 02:01:50;;;;;;;;;;;;;;;15.43;87.08;101951.56;5025457;28;19905;-59
2023/08/23 02:04:16;;;;;;;;;;;;;;;15.44;87.34;101952.47;5011093;28;20147;-60
2023/08/23 02:06:43;;;;;;;;;;;;;;;15.43;87.30;101950.69;5013719;28;19905;-60
2023/08/23 02:09:08;;;;;;;;;;;;;;;15.42;87.21;101949.78;5020657;28;20079;-59
2023/08/23 02:11:36;;;;;;;;;;;;;;;15.43;86.84;101946.31;5007296;28;20194;-60
2023/08/23 02:14:01;;;;;;;;;;;;;;;15.42;86.93;101941.03;5016694;28;19913;-60
2023/08/23 02:16:28;;;;;;;;;;;;;;;15.39;86.38;101944.47;5020732;28;19906;-60
2023/08/23 02:18:53;;;;;;;;;;;;;;;15.29;86.70;101943.41;5017748;28;19910;-60
2023/08/23 02:21:18;;;;;;;;;;;;;;;15.19;86.69;101936.16;5021400;28;19944;-60
2023/08/23 02:23:44;;;;;;;;;;;;;;;15.09;87.13;101940.34;5025150;28;19916;-59
2023/08/23 02:26:09;;;;;;;;;;;;;;;15.04;87.48;101944.56;5019727;28;19964;-60
2023/08/23 02:28:34;;;;;;;;;;;;;;;15.03;87.96;101939.28;5022568;28;19956;-60
2023/08/23 02:31:03;;;;;;;;;;;;;;;14.97;87.64;101940.03;5019266;28;19929;-60
2023/08/23 02:33:28;;;;;;;;;;;;;;;14.90;87.83;101943.38;5020241;28;19909;-60
2023/08/23 02:35:53;;;;;;;;;;;;;;;14.86;88.44;101936.28;5022163;28;19920;-60
2023/08/23 02:38:18;;;;;;;;;;;;;;;14.88;88.60;101947.72;5023804;28;19916;-60
2023/08/23 02:40:44;;;;;;;;;;;;;;;14.89;88.26;101941.63;5014638;28;19937;-60
2023/08/23 02:43:09;;;;;;;;;;;;;;;14.88;88.29;101947.72;5015717;28;20059;-60
2023/08/23 02:45:41;;;;;;;;;;;;;;;14.85;87.72;101942.41;5018655;28;19932;-60
2023/08/23 02:48:07;;;;;;;;;;;;;;;14.77;88.34;101932.59;5018258;28;19965;-60
2023/08/23 02:50:32;;;;;;;;;;;;;;;14.70;89.28;101942.88;5013375;28;19905;-60
2023/08/23 02:52:57;;;;;;;;;;;;;;;14.65;89.56;101942.78;5017750;28;19917;-60
2023/08/23 02:55:23;;;;;;;;;;;;;;;14.66;89.48;101941.06;5016699;28;19952;-60
2023/08/23 02:57:48;;;;;;;;;;;;;;;14.68;89.50;101932.38;5015680;28;19924;-60
2023/08/23 03:00:13;;;;;;;;;;;;;;;14.71;88.66;101932.44;5016021;28;19906;-60
2023/08/23 03:02:38;;;;;;;;;;;;;;;14.66;88.61;101927.97;5015276;28;19995;-60
2023/08/23 03:05:04;;;;;;;;;;;;;;;14.50;89.88;101924.03;5015270;28;19950;-60
2023/08/23 03:07:29;;;;;;;;;;;;;;;14.40;89.79;101922.91;5013556;28;19968;-60
2023/08/23 03:09:54;;;;;;;;;;;;;;;14.42;90.26;101923.81;5013097;28;19921;-60
2023/08/23 03:12:19;;;;;;;;;;;;;;;14.46;90.70;101920.44;5013923;28;19975;-60
2023/08/23 03:14:45;;;;;;;;;;;;;;;14.47;90.74;101921.31;5015408;28;19969;-60
2023/08/23 03:17:10;;;;;;;;;;;;;;;14.44;90.30;101923.03;5017650;28;20054;-60
2023/08/23 03:19:36;;;;;;;;;;;;;;;14.44;90.09;101917.78;5016821;28;20062;-60
2023/08/23 03:22:02;;;;;;;;;;;;;;;14.49;90.03;101924.88;5015143;28;20168;-60
2023/08/23 03:24:27;;;;;;;;;;;;;;;14.50;90.09;101924.03;5014008;28;19909;-60
2023/08/23 03:26:52;;;;;;;;;;;;;;;14.48;89.88;101918.72;5022869;28;19928;-60
2023/08/23 03:29:18;;;;;;;;;;;;;;;14.43;89.74;101909.88;5011287;28;20059;-60
2023/08/23 03:31:43;;;;;;;;;;;;;;;14.44;89.40;101911.66;5023600;28;19909;-60
2023/08/23 03:34:08;;;;;;;;;;;;;;;14.46;89.40;101909.94;5022058;28;19948;-60
2023/08/23 03:36:33;;;;;;;;;;;;;;;14.45;89.52;101918.66;5017171;28;20147;-60
2023/08/23 03:38:58;;;;;;;;;;;;;;;14.41;89.23;101924.66;5024441;28;19898;-60
2023/08/23 03:41:23;;;;;;;;;;;;;;;14.35;88.96;101933.28;5027157;28;19943;-60
2023/08/23 03:43:49;;;;;;;;;;;;;;;14.28;89.12;101931.34;5018751;28;20067;-60
2023/08/23 03:46:14;;;;;;;;;;;;;;;14.30;88.92;101924.41;5027300;28;19940;-60
2023/08/23 03:48:39;;;;;;;;;;;;;;;14.29;88.64;101911.25;5031392;28;19901;-60
2023/08/23 03:51:04;;;;;;;;;;;;;;;14.17;90.51;101917.97;5030672;28;19913;-60
2023/08/23 03:53:30;;;;;;;;;;;;;;;14.03;89.46;101915.00;5020534;28;19905;-60
2023/08/23 03:55:55;;;;;;;;;;;;;;;13.99;90.04;101913.13;5022886;28;19937;-60
2023/08/23 03:58:21;;;;;;;;;;;;;;;14.01;90.50;101924.53;5025923;28;19912;-60
2023/08/23 04:00:52;;;;;;;;;;;;;;;14.03;90.79;101924.56;5024110;28;19906;-60
2023/08/23 04:03:17;;;;;;;;;;;;;;;14.04;91.03;101924.59;5028525;28;20296;-60
2023/08/23 04:05:43;;;;;;;;;;;;;;;14.08;90.82;101923.84;5017560;28;19944;-60
2023/08/23 04:08:08;;;;;;;;;;;;;;;14.14;90.56;101930.09;5025496;28;19909;-60
2023/08/23 04:10:34;;;;;;;;;;;;;;;14.15;90.82;101918.75;5018952;28;19906;-60
2023/08/23 04:12:59;;;;;;;;;;;;;;;14.15;90.56;101924.91;5012260;28;20083;-60
2023/08/23 04:15:24;;;;;;;;;;;;;;;14.19;90.68;101931.09;5023246;28;19906;-60
2023/08/23 04:17:49;;;;;;;;;;;;;;;14.20;90.73;101939.00;5021334;28;20086;-60
2023/08/23 04:20:15;;;;;;;;;;;;;;;14.20;90.56;101933.75;5019315;28;19975;-60
2023/08/23 04:22:40;;;;;;;;;;;;;;;14.23;90.47;101933.84;5017728;28;19989;-60
2023/08/23 04:25:05;;;;;;;;;;;;;;;14.23;90.42;101939.06;5018995;28;19933;-60
2023/08/23 04:27:30;;;;;;;;;;;;;;;14.20;90.17;101936.38;5022970;28;19940;-60
2023/08/23 04:29:55;;;;;;;;;;;;;;;14.20;90.12;101930.25;5008662;28;19965;-60
2023/08/23 04:32:21;;;;;;;;;;;;;;;14.19;90.10;101933.72;5022891;28;19976;-60
2023/08/23 04:34:46;;;;;;;;;;;;;;;14.17;89.99;101938.94;5024059;28;20302;-60
2023/08/23 04:37:11;;;;;;;;;;;;;;;14.19;89.97;101936.34;5025601;28;20051;-60
2023/08/23 04:39:36;;;;;;;;;;;;;;;14.18;90.14;101934.56;5010780;28;19956;-60
2023/08/23 04:42:02;;;;;;;;;;;;;;;14.17;89.91;101938.06;5022887;28;19912;-60
2023/08/23 04:44:27;;;;;;;;;;;;;;;14.17;89.81;101938.94;5017090;28;19910;-59
2023/08/23 04:46:52;;;;;;;;;;;;;;;14.17;89.96;101936.31;5016983;28;20040;-60
2023/08/23 04:49:17;;;;;;;;;;;;;;;14.15;90.20;101937.09;5018936;28;19953;-60
2023/08/23 04:51:43;;;;;;;;;;;;;;;14.15;90.03;101929.25;5016838;28;19905;-60
2023/08/23 04:54:08;;;;;;;;;;;;;;;14.14;90.07;101933.59;5015392;28;19993;-60
2023/08/23 04:56:34;;;;;;;;;;;;;;;14.13;90.18;101923.09;5019472;28;19905;-60
2023/08/23 04:58:59;;;;;;;;;;;;;;;14.11;90.29;101930.00;5023079;28;20066;-60
2023/08/23 05:01:24;;;;;;;;;;;;;;;14.12;90.37;101935.31;5019925;28;19909;-60
2023/08/23 05:03:49;;;;;;;;;;;;;;;14.09;90.40;101925.63;5020595;28;19973;-60
2023/08/23 05:06:15;;;;;;;;;;;;;;;14.13;90.53;101928.31;5016008;28;19928;-60
2023/08/23 05:08:40;;;;;;;;;;;;;;;14.14;90.64;101928.38;5015937;28;19906;-60
2023/08/23 05:11:05;;;;;;;;;;;;;;;14.15;90.86;101929.25;5017441;28;19914;-60
2023/08/23 05:13:30;;;;;;;;;;;;;;;14.17;90.77;101933.69;5018626;28;20044;-60
2023/08/23 05:15:56;;;;;;;;;;;;;;;14.14;90.98;101923.13;5019029;28;19925;-60
2023/08/23 05:18:22;;;;;;;;;;;;;;;14.13;92.33;101920.47;5012517;28;19910;-60
2023/08/23 05:20:59;;;;;;;;;;;;;;;14.17;91.71;101917.09;5015511;28;19909;-60
2023/08/23 05:23:25;;;;;;;;;;;;;;;14.20;91.94;101918.03;5020467;28;19909;-60
2023/08/23 05:25:53;;;;;;;;;;;;;;;14.23;92.31;101927.72;5022650;28;19980;-60
2023/08/23 05:28:19;;;;;;;;;;;;;;;14.26;92.59;101926.06;5023603;28;19982;-60
2023/08/23 05:30:45;;;;;;;;;;;;;;;14.28;92.26;101920.88;5020898;28;20228;-60
2023/08/23 05:33:11;;;;;;;;;;;;;;;14.30;92.48;101916.53;5021172;28;19909;-60
2023/08/23 05:35:36;;;;;;;;;;;;;;;14.33;92.28;101929.72;5022514;28;19910;-60
2023/08/23 05:38:01;;;;;;;;;;;;;;;14.31;92.30;101931.44;5022420;28;19917;-60
2023/08/23 05:40:26;;;;;;;;;;;;;;;14.32;92.59;101935.81;5025018;28;19905;-60
2023/08/23 05:42:51;;;;;;;;;;;;;;;14.34;92.67;101927.97;5022193;28;19914;-60
2023/08/23 05:45:17;;;;;;;;;;;;;;;14.36;92.45;101935.03;5027504;28;20094;-60
2023/08/23 05:47:42;;;;;;;;;;;;;;;14.36;92.48;101929.78;5036151;28;19936;-60
2023/08/23 05:50:07;;;;;;;;;;;;;;;14.37;92.19;101926.34;5022195;28;19972;-60
2023/08/23 05:52:32;;;;;;;;;;;;;;;14.38;92.51;101922.88;5022755;28;19913;-60
2023/08/23 05:54:58;;;;;;;;;;;;;;;14.41;92.75;101930.81;5019844;28;19906;-60
2023/08/23 05:57:23;;;;;;;;;;;;;;;14.44;92.66;101937.88;5018768;28;19910;-60
2023/08/23 05:59:48;;;;;;;;;;;;;;;14.44;92.63;101941.38;5022205;28;19937;-60
2023/08/23 06:02:13;;;;;;;;;;;;;;;14.46;92.96;101940.53;5017601;28;20091;-60
2023/08/23 06:04:38;;;;;;;;;;;;;;;14.47;93.01;101942.28;5026067;28;19902;-60
2023/08/23 06:07:04;;;;;;;;;;;;;;;14.47;92.62;101943.19;5019071;28;20139;-60
2023/08/23 06:09:30;;;;;;;;;;;;;;;14.52;92.09;101940.69;5021280;28;19909;-60
2023/08/23 06:11:55;;;;;;;;;;;;;;;14.53;92.68;101945.09;5013146;28;19905;-60
2023/08/23 06:14:21;;;;;;;;;;;;;;;14.54;93.04;101946.84;5015224;28;19918;-60
2023/08/23 06:16:47;;;;;;;;;;;;;;;14.57;93.21;101949.53;5015077;28;19905;-60
2023/08/23 06:19:15;;;;;;;;;;;;;;;14.61;93.33;101946.16;5017679;28;19902;-60
2023/08/23 06:21:41;;;;;;;;;;;;;;;14.64;92.38;101943.63;5019382;28;19967;-60
2023/08/23 06:24:07;;;;;;;;;;;;;;;14.64;92.66;101946.25;5017332;28;19908;-60
2023/08/23 06:26:34;;;;;;;;;;;;;;;14.64;93.48;101948.00;5019663;28;20209;-60
2023/08/23 06:28:59;;;;;;;;;;;;;;;14.67;94.09;101948.06;5009959;28;20189;-60
2023/08/23 06:31:24;;;;;;;;;;;;;;;14.71;94.87;101958.66;5020406;28;20166;-60
2023/08/23 06:33:49;;;;;;;;;;;;;;;14.77;94.52;101950.97;5025472;28;19924;-60
2023/08/23 06:36:15;;;;;;;;;;;;;;;14.84;94.30;101953.72;5023351;28;20001;-60
2023/08/23 06:38:43;;;;;;;;;;;;;;;14.91;94.51;101950.41;5023671;28;19905;-60
2023/08/23 06:41:10;;;;;;;;;;;;;;;14.98;95.08;101944.44;5020834;28;19913;-60
2023/08/23 06:43:36;;;;;;;;;;;;;;;15.06;96.14;101944.63;5014726;28;19944;-60
2023/08/23 06:46:01;;;;;;;;;;;;;;;15.10;96.56;101952.59;5019642;28;20159;-60
2023/08/23 06:48:26;;;;;;;;;;;;;;;15.16;96.13;101945.72;5025191;28;19904;-60
2023/08/23 06:50:52;;;;;;;;;;;;;;;15.24;97.00;101954.66;5026213;28;19905;-60
2023/08/23 06:53:17;;;;;;;;;;;;;;;15.36;97.20;101952.28;5015981;28;19922;-60
2023/08/23 06:55:42;;;;;;;;;;;;;;;15.41;96.53;101947.13;5019077;28;20079;-60
2023/08/23 06:58:07;;;;;;;;;;;;;;;15.51;97.70;101958.72;5017205;28;19917;-60
2023/08/23 07:00:33;;;;;;;;;;;;;;;15.59;97.60;101962.41;5016994;28;19956;-61
2023/08/23 07:02:58;;;;;;;;;;;;;;;15.68;97.48;101967.84;5018394;28;19944;-61
2023/08/23 07:05:24;;;;;;;;;;;;;;;15.76;96.44;101970.66;5016255;28;19932;-60
2023/08/23 07:07:49;;;;;;;;;;;;;;;15.92;96.38;101969.25;5011441;28;20038;-61
2023/08/23 07:10:14;;;;;;;;;;;;;;;16.04;96.56;101971.22;5024873;28;19944;-61
2023/08/23 07:12:39;;;;;;;;;;;;;;;16.16;97.43;101976.69;5026586;28;19936;-60
2023/08/23 07:15:05;;;;;;;;;;;;;;;16.24;96.59;101969.84;5020729;28;19940;-61
2023/08/23 07:17:30;;;;;;;;;;;;;;;16.34;96.35;101981.41;5026143;28;20144;-61
2023/08/23 07:19:55;;;;;;;;;;;;;;;16.47;97.02;101982.53;5033303;28;19905;-61
2023/08/23 07:22:20;;;;;;;;;;;;;;;16.55;96.51;101980.88;5026558;28;19916;-60
2023/08/23 07:24:46;;;;;;;;;;;;;;;16.63;96.80;101973.16;5028131;28;19909;-60
2023/08/23 07:27:11;;;;;;;;;;;;;;;16.72;97.08;101973.28;5020623;28;19902;-61
2023/08/23 07:29:36;;;;;;;;;;;;;;;16.79;96.21;101979.56;5024317;28;19951;-61
2023/08/23 07:32:02;;;;;;;;;;;;;;;16.92;97.31;101981.53;5018190;28;19973;-61
2023/08/23 07:34:27;;;;;;;;;;;;;;;17.09;96.56;101984.44;5025595;28;19913;-61
2023/08/23 07:36:52;;;;;;;;;;;;;;;17.24;99.64;101990.78;5020178;28;19973;-61
2023/08/23 07:39:17;;;;;;;;;;;;;;;17.37;99.91;101988.34;5018414;28;19910;-61
2023/08/23 07:41:43;;;;;;;;;;;;;;;17.51;99.51;101988.53;5022228;28;19976;-61
2023/08/23 07:44:08;;;;;;;;;;;;;;;17.64;98.52;101988.69;5023126;28;19980;-61
2023/08/23 07:46:33;;;;;;;;;;;;;;;17.70;98.50;101988.78;5019630;28;19950;-61
2023/08/23 07:48:58;;;;;;;;;;;;;;;17.81;97.08;101989.78;5017088;28;20186;-61
2023/08/23 07:51:23;;;;;;;;;;;;;;;18.00;97.53;101997.94;5026694;28;19901;-60
2023/08/23 07:53:49;;;;;;;;;;;;;;;18.23;97.78;101995.53;5026371;28;20074;-61
2023/08/23 07:56:14;;;;;;;;;;;;;;;18.38;95.87;101989.56;5026572;28;19922;-61
2023/08/23 07:58:41;;;;;;;;;;;;;;;18.47;95.27;101991.41;5021946;28;19983;-61
2023/08/23 08:01:06;;;;;;;;;;;;;;;18.55;94.94;101994.97;5031233;28;19925;-61
2023/08/23 08:03:31;;;;;;;;;;;;;;;18.67;94.54;101992.44;5033852;28;19945;-61
2023/08/23 08:05:57;;;;;;;;;;;;;;;18.80;93.66;101988.16;5035246;28;19908;-61
2023/08/23 08:08:22;;;;;;;;;;;;;;;18.90;92.46;101983.84;5034378;28;19908;-61
2023/08/23 08:10:49;;;;;;;;;;;;;;;19.01;92.23;101989.22;5035708;28;19908;-61
2023/08/23 08:13:14;;;;;;;;;;;;;;;19.20;90.87;101988.44;5037330;28;19947;-61
2023/08/23 08:15:39;;;;;;;;;;;;;;;19.39;91.27;101978.00;5032826;28;19964;-61
2023/08/23 08:18:04;;;;;;;;;;;;;;;19.53;90.95;101986.88;5030169;28;20082;-61
2023/08/23 08:20:30;;;;;;;;;;;;;;;19.60;89.68;101982.50;5026041;28;19902;-61
2023/08/23 08:22:55;;;;;;;;;;;;;;;19.76;89.78;101984.31;5020097;28;19957;-61
2023/08/23 08:25:20;;;;;;;;;;;;;;;19.91;89.03;101993.22;5010698;28;19955;-61
2023/08/23 08:27:45;;;;;;;;;;;;;;;20.05;87.21;101993.28;5023658;28;19940;-60
2023/08/23 08:30:11;;;;;;;;;;;;;;;20.13;87.52;101997.72;5021640;28;19913;-61
2023/08/23 08:32:36;;;;;;;;;;;;;;;20.27;87.01;101997.72;5025331;28;19932;-61
2023/08/23 08:35:01;;;;;;;;;;;;;;;20.45;86.90;101993.31;5022383;28;20143;-61
2023/08/23 08:37:26;;;;;;;;;;;;;;;20.61;85.23;101987.19;5016259;28;19909;-61
2023/08/23 08:39:52;;;;;;;;;;;;;;;20.69;85.15;101979.25;5016037;28;20070;-61
2023/08/23 08:42:17;;;;;;;;;;;;;;;20.75;85.03;101978.38;5018606;28;19918;-61
2023/08/23 08:44:44;;;;;;;;;;;;;;;20.85;82.43;101977.47;5017767;28;19931;-61
2023/08/23 08:47:09;;;;;;;;;;;;;;;20.99;83.17;101970.41;5020559;28;19905;-61
2023/08/23 08:49:34;;;;;;;;;;;;;;;21.17;81.73;101972.16;5014373;28;19901;-61
2023/08/23 08:52:02;;;;;;;;;;;;;;;21.37;82.47;101973.84;5015200;28;19905;-61
2023/08/23 08:54:29;;;;;;;;;;;;;;;21.59;81.59;101977.31;5012850;28;19984;-62
2023/08/23 08:56:55;;;;;;;;;;;;;;;21.71;81.63;101977.28;5014546;28;19961;-61
2023/08/23 08:59:20;;;;;;;;;;;;;;;21.90;81.32;101985.16;5014675;28;19913;-62
2023/08/23 09:01:46;;;;;;;;;;;;;;;22.13;79.73;101981.47;5018220;28;19901;-62
2023/08/23 09:04:12;;;;;;;;;;;;;;;22.28;80.07;101984.03;5021600;28;20114;-61
2023/08/23 09:06:37;;;;;;;;;;;;;;;22.39;78.84;101979.56;5016899;28;19905;-62
2023/08/23 09:09:03;;;;;;;;;;;;;;;22.54;78.05;101980.34;5025481;28;19925;-61
2023/08/23 09:11:29;;;;;;;;;;;;;;;22.60;76.84;101974.97;5022701;28;19909;-61
2023/08/23 09:13:54;;;;;;;;;;;;;;;22.65;75.26;101975.81;5009844;28;20155;-61
2023/08/23 09:16:19;;;;;;;;;;;;;;;22.68;76.01;101975.78;5016072;28;19977;-61
2023/08/23 09:18:45;;;;;;;;;;;;;;;22.83;75.19;101980.06;5016061;28;20182;-61
2023/08/23 09:21:12;;;;;;;;;;;;;;;22.98;74.43;101980.81;5023804;28;19905;-61
2023/08/23 09:23:37;;;;;;;;;;;;;;;23.16;75.33;101979.75;5025543;28;19956;-61
2023/08/23 09:26:02;;;;;;;;;;;;;;;23.33;75.66;101980.44;5023847;28;19909;-61
2023/08/23 09:28:29;;;;;;;;;;;;;;;23.47;72.88;101976.78;5024026;28;19909;-61
2023/08/23 09:30:54;;;;;;;;;;;;;;;23.34;73.75;101979.56;5020958;28;20617;-61
2023/08/23 09:33:19;;;;;;;;;;;;;;;23.38;73.23;101981.28;5023178;28;19965;-62
2023/08/23 09:35:48;;;;;;;;;;;;;;;23.53;72.65;101987.34;5024679;28;19914;-62
2023/08/23 09:38:17;;;;;;;;;;;;;;;23.69;71.25;101988.88;5025437;28;19963;-61
2023/08/23 09:40:42;;;;;;;;;;;;;;;23.94;71.09;101983.25;5025241;28;19937;-62
2023/08/23 09:43:07;;;;;;;;;;;;;;;24.06;69.25;101983.09;5024647;28;20033;-61
2023/08/23 09:45:33;;;;;;;;;;;;;;;24.25;70.85;101981.03;5021900;28;19906;-61
2023/08/23 09:47:59;;;;;;;;;;;;;;;24.42;68.87;101975.44;5021865;28;20017;-61
2023/08/23 09:50:25;;;;;;;;;;;;;;;24.48;70.58;101967.34;5008207;28;19940;-61
2023/08/23 09:53:08;;;;;;;;;;;;;;;24.62;69.36;101977.81;5022871;28;19981;-62
2023/08/23 09:55:34;;;;;;;;;;;;;;;24.74;70.77;101970.53;5023893;28;19913;-61
2023/08/23 09:58:00;;;;;;;;;;;;;;;24.89;68.98;101974.69;5026978;28;19917;-61
2023/08/23 10:00:25;;;;;;;;;;;;;;;24.97;65.89;101975.44;5017354;28;19906;-61
2023/08/23 10:02:51;;;;;;;;;;;;;;;25.04;66.28;101968.19;5015960;28;19912;-62
2023/08/23 10:05:18;;;;;;;;;;;;;;;25.03;63.89;101974.41;5023540;28;19964;-61
2023/08/23 10:07:43;;;;;;;;;;;;;;;24.99;64.42;101976.28;5018937;28;19956;-62
2023/08/23 10:10:10;;;;;;;;;;;;;;;24.93;66.41;101979.94;5022510;28;19959;-61
2023/08/23 10:12:36;;;;;;;;;;;;;;;25.09;64.17;101979.66;5024694;28;19928;-61
2023/08/23 10:15:02;;;;;;;;;;;;;;;25.10;65.26;101970.72;5024176;28;19908;-61
2023/08/23 10:17:29;;;;;;;;;;;;;;;25.11;64.25;101965.38;5024354;28;20136;-61
2023/08/23 10:19:55;;;;;;;;;;;;;;;25.22;65.50;101969.63;5023105;28;19956;-61
2023/08/23 10:22:20;;;;;;;;;;;;;;;25.43;63.56;101971.91;5020189;28;19913;-62
2023/08/23 10:24:49;;;;;;;;;;;;;;;25.46;61.99;101970.94;5018310;28;19910;-61
2023/08/23 10:27:15;;;;;;;;;;;;;;;25.45;64.19;101970.06;5023652;28;20146;-62
2023/08/23 10:29:40;;;;;;;;;;;;;;;25.63;63.10;101973.25;5031754;28;19909;-61
2023/08/23 10:32:09;;;;;;;;;;;;;;;25.83;60.50;101971.03;5027165;28;19905;-61
2023/08/23 10:34:35;;;;;;;;;;;;;;;25.91;61.46;101973.53;5023900;28;19905;-61
2023/08/23 10:37:11;;;;;;;;;;;;;;;26.06;60.99;101971.47;5023979;28;19963;-62
2023/08/23 10:39:36;;;;;;;;;;;;;;;26.17;56.62;101969.41;5022863;28;19972;-62
2023/08/23 10:42:02;;;;;;;;;;;;;;;26.08;58.55;101965.16;5024002;28;19906;-61
2023/08/23 10:44:28;;;;;;;;;;;;;;;26.21;56.83;101965.75;5028219;28;19910;-61
2023/08/23 10:46:53;;;;;;;;;;;;;;;26.19;55.14;101960.44;5029677;28;19913;-61
2023/08/23 10:49:20;;;;;;;;;;;;;;;26.08;55.80;101954.47;5032842;28;19996;-62
2023/08/23 10:51:45;;;;;;;;;;;;;;;26.18;56.98;101956.00;5029981;28;19906;-62
2023/08/23 10:54:11;;;;;;;;;;;;;;;26.23;59.94;101955.91;5028639;28;19909;-62
2023/08/23 10:56:37;;;;;;;;;;;;;;;26.41;59.22;101956.38;5031201;28;20100;-62
2023/08/23 10:59:02;;;;;;;;;;;;;;;26.60;57.90;101952.28;5029728;28;19906;-62
2023/08/23 11:01:28;;;;;;;;;;;;;;;26.75;55.85;101951.06;5024998;28;19912;-62
2023/08/23 11:03:54;;;;;;;;;;;;;;;26.67;57.97;101936.97;5025992;28;19952;-62
2023/08/23 11:06:20;;;;;;;;;;;;;;;26.65;57.84;101945.03;5025330;28;20126;-61
2023/08/23 11:08:45;;;;;;;;;;;;;;;26.47;58.98;101941.03;5024050;28;19906;-61
2023/08/23 11:11:11;;;;;;;;;;;;;;;26.61;58.47;101934.47;5022456;28;19969;-62
2023/08/23 11:13:36;;;;;;;;;;;;;;;26.80;58.98;101934.91;5022904;28;19960;-62
2023/08/23 11:16:02;;;;;;;;;;;;;;;26.88;56.36;101925.75;5023047;28;19917;-62
2023/08/23 11:18:27;;;;;;;;;;;;;;;26.97;56.74;101923.72;5018603;28;19972;-62
2023/08/23 11:20:53;;;;;;;;;;;;;;;27.14;54.92;101925.91;5014985;28;19910;-62
2023/08/23 11:23:18;;;;;;;;;;;;;;;27.12;54.29;101919.75;5016297;28;20036;-62
2023/08/23 11:25:43;;;;;;;;;;;;;;;27.21;56.64;101917.69;5014483;28;19921;-62
2023/08/23 11:28:10;;;;;;;;;;;;;;;27.32;54.15;101919.16;5011152;28;20152;-61
2023/08/23 11:30:35;;;;;;;;;;;;;;;27.29;56.52;101913.88;5013668;28;19914;-61
2023/08/23 11:33:02;;;;;;;;;;;;;;;27.32;55.07;101916.50;5016148;28;19952;-61
2023/08/23 11:35:28;;;;;;;;;;;;;;;27.27;53.51;101913.06;5026200;28;20008;-61
2023/08/23 11:37:54;;;;;;;;;;;;;;;27.40;53.13;101919.81;5025762;28;19905;-61
2023/08/23 11:40:22;;;;;;;;;;;;;;;27.50;54.79;101918.63;5026401;28;19905;-61
2023/08/23 11:42:47;;;;;;;;;;;;;;;27.69;53.07;101915.38;5029476;28;19928;-61
2023/08/23 11:45:12;;;;;;;;;;;;;;;27.70;52.11;101909.97;5031650;28;19909;-61
2023/08/23 11:47:39;;;;;;;;;;;;;;;27.65;52.56;101922.66;5032054;28;20055;-62
2023/08/23 11:50:07;;;;;;;;;;;;;;;27.65;53.86;101924.44;5028248;28;19980;-61
2023/08/23 11:52:32;;;;;;;;;;;;;;;27.71;55.01;101921.59;5033233;28;19901;-61
2023/08/23 11:54:58;;;;;;;;;;;;;;;27.76;55.27;101919.63;5036203;28;19955;-61
2023/08/23 11:57:23;;;;;;;;;;;;;;;27.92;55.25;101912.88;5016052;28;19901;-62
2023/08/23 11:59:49;;;;;;;;;;;;;;;28.07;54.80;101902.63;5025294;28;19917;-62
2023/08/23 12:02:14;;;;;;;;;;;;;;;28.30;51.05;101906.31;5019121;28;20004;-61
2023/08/23 12:04:41;;;;;;;;;;;;;;;28.28;50.38;101904.53;5026824;28;19917;-61
2023/08/23 12:07:06;;;;;;;;;;;;;;;28.24;52.38;101916.31;5020381;28;20024;-61
2023/08/23 12:09:32;;;;;;;;;;;;;;;28.33;50.81;101904.41;5027085;28;19917;-61
2023/08/23 12:11:59;;;;;;;;;;;;;;;28.39;50.92;101914.91;5024208;28;19905;-61
2023/08/23 12:14:26;;;;;;;;;;;;;;;28.51;50.35;101915.44;5026174;28;20131;-61
2023/08/23 12:16:52;;;;;;;;;;;;;;;28.59;50.67;101895.44;5026059;28;19909;-61
2023/08/23 12:19:17;;;;;;;;;;;;;;;28.64;51.94;101902.50;5024040;28;19908;-61
2023/08/23 12:21:42;;;;;;;;;;;;;;;28.75;48.71;101905.66;5014843;28;20037;-61
2023/08/23 12:24:07;;;;;;;;;;;;;;;28.76;51.33;101902.94;5022505;28;19914;-61
2023/08/23 12:26:33;;;;;;;;;;;;;;;28.84;51.88;101899.97;5013113;28;19913;-61
2023/08/23 12:28:59;;;;;;;;;;;;;;;28.94;50.49;101904.06;5022350;28;20139;-61